sensor_id;sensor_type;location;lat;lon;timestamp;pressure;altitude;pressure_sealevel;temperature;humidity
22181;BME280;11256;50.830;12.834;2023-04-05T00:02:05;98307.72;;;3.23;53.29
22181;BME280;11256;50.830;12.834;2023-04-05T00:07:05;98308.53;;;3.24;53.10
22181;BME280;11256;50.830;12.834;2023-04-05T00:12:07;98288.25;;;3.10;53.64
22181;BME280;11256;50.830;12.834;2023-04-05T00:17:07;98294.66;;;3.09;53.14
22181;BME280;11256;50.830;12.834;2023-04-05T00:22:08;98285.03;;;3.01;53.69
22181;BME280;11256;50.830;12.834;2023-04-05T00:27:09;98302.09;;;3.07;53.73
22181;BME280;11256;50.830;12.834;2023-04-05T00:32:09;98284.50;;;2.93;53.43
22181;BME280;11256;50.830;12.834;2023-04-05T00:37:10;98290.38;;;3.01;53.63
22181;BME280;11256;50.830;12.834;2023-04-05T00:42:10;98295.53;;;3.03;53.48
22181;BME280;11256;50.830;12.834;2023-04-05T00:47:11;98274.63;;;2.93;53.49
22181;BME280;11256;50.830;12.834;2023-04-05T00:52:12;98280.94;;;2.99;53.71
22181;BME280;11256;50.830;12.834;2023-04-05T00:57:13;98261.91;;;2.89;53.67
22181;BME280;11256;50.830;12.834;2023-04-05T01:02:22;98284.06;;;2.96;53.59
22181;BME280;11256;50.830;12.834;2023-04-05T01:07:28;98268.88;;;2.90;53.92
22181;BME280;11256;50.830;12.834;2023-04-05T01:12:32;98280.47;;;2.84;53.71
22181;BME280;11256;50.830;12.834;2023-04-05T01:17:33;98259.06;;;2.84;53.91
22181;BME280;11256;50.830;12.834;2023-04-05T01:22:51;98257.38;;;2.83;53.96
22181;BME280;11256;50.830;12.834;2023-04-05T01:33:25;98241.44;;;2.70;53.99
22181;BME280;11256;50.830;12.834;2023-04-05T01:38:31;98251.06;;;2.77;54.17
22181;BME280;11256;50.830;12.834;2023-04-05T01:43:32;98229.91;;;2.69;54.02
22181;BME280;11256;50.830;12.834;2023-04-05T01:48:35;98225.41;;;2.70;54.04
22181;BME280;11256;50.830;12.834;2023-04-05T01:53:35;98249.66;;;2.75;54.31
22181;BME280;11256;50.830;12.834;2023-04-05T01:58:35;98250.69;;;2.74;54.24
22181;BME280;11256;50.830;12.834;2023-04-05T02:03:36;98238.94;;;2.75;54.80
22181;BME280;11256;50.830;12.834;2023-04-05T02:08:36;98216.78;;;2.68;54.53
22181;BME280;11256;50.830;12.834;2023-04-05T02:13:36;98232.72;;;2.81;54.33
22181;BME280;11256;50.830;12.834;2023-04-05T02:18:37;98235.56;;;2.86;54.49
22181;BME280;11256;50.830;12.834;2023-04-05T02:23:37;98238.06;;;2.81;54.52
22181;BME280;11256;50.830;12.834;2023-04-05T02:28:38;98218.41;;;2.69;54.40
22181;BME280;11256;50.830;12.834;2023-04-05T02:33:39;98226.50;;;2.87;54.55
22181;BME280;11256;50.830;12.834;2023-04-05T02:38:39;98223.66;;;2.82;54.67
22181;BME280;11256;50.830;12.834;2023-04-05T02:43:40;98215.03;;;2.80;54.69
22181;BME280;11256;50.830;12.834;2023-04-05T02:48:40;98228.94;;;2.88;54.26
22181;BME280;11256;50.830;12.834;2023-04-05T02:53:41;98217.72;;;2.80;54.56
22181;BME280;11256;50.830;12.834;2023-04-05T02:58:45;98195.09;;;2.76;54.53
22181;BME280;11256;50.830;12.834;2023-04-05T03:03:49;98213.72;;;2.89;54.59
22181;BME280;11256;50.830;12.834;2023-04-05T03:08:50;98200.94;;;2.91;54.21
22181;BME280;11256;50.830;12.834;2023-04-05T03:13:55;98184.19;;;2.77;54.65
22181;BME280;11256;50.830;12.834;2023-04-05T03:19:15;98205.09;;;2.87;54.78
22181;BME280;11256;50.830;12.834;2023-04-05T03:24:19;98205.53;;;2.84;54.51
22181;BME280;11256;50.830;12.834;2023-04-05T03:29:19;98202.91;;;2.77;54.63
22181;BME280;11256;50.830;12.834;2023-04-05T03:34:21;98193.28;;;2.70;54.68
22181;BME280;11256;50.830;12.834;2023-04-05T03:39:23;98201.53;;;2.68;54.79
22181;BME280;11256;50.830;12.834;2023-04-05T03:44:24;98204.44;;;2.67;54.60
22181;BME280;11256;50.830;12.834;2023-04-05T03:49:24;98208.38;;;2.64;54.58
22181;BME280;11256;50.830;12.834;2023-04-05T03:54:25;98205.28;;;2.61;54.51
22181;BME280;11256;50.830;12.834;2023-04-05T03:59:29;98172.72;;;2.46;54.73
22181;BME280;11256;50.830;12.834;2023-04-05T04:04:31;98205.28;;;2.61;54.59
22181;BME280;11256;50.830;12.834;2023-04-05T04:09:32;98207.38;;;2.59;54.93
22181;BME280;11256;50.830;12.834;2023-04-05T04:14:39;98189.34;;;2.48;54.84
22181;BME280;11256;50.830;12.834;2023-04-05T04:20:13;98207.19;;;2.54;55.22
22181;BME280;11256;50.830;12.834;2023-04-05T04:25:28;98194.53;;;2.43;55.11
22181;BME280;11256;50.830;12.834;2023-04-05T04:30:39;98211.56;;;2.48;55.11
22181;BME280;11256;50.830;12.834;2023-04-05T04:36:07;98215.72;;;2.44;55.09
22181;BME280;11256;50.830;12.834;2023-04-05T04:41:50;98211.59;;;2.42;55.20
22181;BME280;11256;50.830;12.834;2023-04-05T04:47:21;98216.97;;;2.42;55.22
22181;BME280;11256;50.830;12.834;2023-04-05T04:52:38;98200.59;;;2.25;55.42
22181;BME280;11256;50.830;12.834;2023-04-05T04:57:40;98220.91;;;2.33;55.47
22181;BME280;11256;50.830;12.834;2023-04-05T05:02:41;98225.06;;;2.29;55.73
22181;BME280;11256;50.830;12.834;2023-04-05T05:07:43;98193.31;;;2.08;55.72
22181;BME280;11256;50.830;12.834;2023-04-05T05:12:43;98219.09;;;2.27;55.86
22181;BME280;11256;50.830;12.834;2023-04-05T05:17:46;98217.47;;;2.26;56.49
22181;BME280;11256;50.830;12.834;2023-04-05T05:22:51;98213.38;;;2.23;55.91
22181;BME280;11256;50.830;12.834;2023-04-05T05:27:52;98219.38;;;2.19;56.36
22181;BME280;11256;50.830;12.834;2023-04-05T05:32:55;98200.72;;;2.06;56.62
22181;BME280;11256;50.830;12.834;2023-04-05T05:37:57;98214.22;;;2.17;56.21
22181;BME280;11256;50.830;12.834;2023-04-05T05:42:57;98196.59;;;2.10;56.53
22181;BME280;11256;50.830;12.834;2023-04-05T05:47:57;98198.22;;;2.11;56.54
22181;BME280;11256;50.830;12.834;2023-04-05T05:52:58;98180.38;;;2.05;56.62
22181;BME280;11256;50.830;12.834;2023-04-05T05:57:58;98185.50;;;2.13;56.98
22181;BME280;11256;50.830;12.834;2023-04-05T06:02:59;98210.41;;;2.38;56.96
22181;BME280;11256;50.830;12.834;2023-04-05T06:08:00;98207.47;;;2.46;57.50
22181;BME280;11256;50.830;12.834;2023-04-05T06:13:03;98212.34;;;2.55;57.17
22181;BME280;11256;50.830;12.834;2023-04-05T06:18:03;98221.41;;;2.54;57.22
22181;BME280;11256;50.830;12.834;2023-04-05T06:23:03;98223.41;;;2.59;57.80
22181;BME280;11256;50.830;12.834;2023-04-05T06:28:05;98217.97;;;2.72;57.28
22181;BME280;11256;50.830;12.834;2023-04-05T06:33:05;98198.66;;;2.70;57.24
22181;BME280;11256;50.830;12.834;2023-04-05T06:38:05;98202.69;;;2.79;57.77
22181;BME280;11256;50.830;12.834;2023-04-05T06:43:07;98207.88;;;2.98;56.93
22181;BME280;11256;50.830;12.834;2023-04-05T06:48:09;98214.84;;;2.99;57.37
22181;BME280;11256;50.830;12.834;2023-04-05T06:53:10;98222.13;;;3.17;57.32
22181;BME280;11256;50.830;12.834;2023-04-05T06:58:12;98188.38;;;3.16;57.68
22181;BME280;11256;50.830;12.834;2023-04-05T07:03:12;98213.28;;;3.34;57.17
22181;BME280;11256;50.830;12.834;2023-04-05T07:08:12;98209.84;;;3.45;57.38
22181;BME280;11256;50.830;12.834;2023-04-05T07:13:13;98207.69;;;3.54;57.62
22181;BME280;11256;50.830;12.834;2023-04-05T07:18:13;98195.28;;;3.59;57.55
22181;BME280;11256;50.830;12.834;2023-04-05T07:23:16;98208.16;;;3.87;57.52
22181;BME280;11256;50.830;12.834;2023-04-05T07:28:17;98203.81;;;4.04;57.58
22181;BME280;11256;50.830;12.834;2023-04-05T07:33:17;98214.63;;;4.27;57.99
22181;BME280;11256;50.830;12.834;2023-04-05T07:38:17;98208.25;;;4.69;57.67
22181;BME280;11256;50.830;12.834;2023-04-05T07:43:18;98188.53;;;5.44;58.13
22181;BME280;11256;50.830;12.834;2023-04-05T07:48:19;98190.91;;;6.75;57.94
22181;BME280;11256;50.830;12.834;2023-04-05T07:53:19;98195.28;;;8.07;55.96
22181;BME280;11256;50.830;12.834;2023-04-05T07:58:19;98173.22;;;9.26;56.30
22181;BME280;11256;50.830;12.834;2023-04-05T08:03:21;98211.28;;;10.94;54.34
22181;BME280;11256;50.830;12.834;2023-04-05T08:08:23;98193.78;;;12.15;50.74
22181;BME280;11256;50.830;12.834;2023-04-05T08:13:23;98199.81;;;13.66;50.35
22181;BME280;11256;50.830;12.834;2023-04-05T08:18:24;98185.06;;;14.24;47.47
22181;BME280;11256;50.830;12.834;2023-04-05T08:23:24;98199.13;;;14.91;44.20
22181;BME280;11256;50.830;12.834;2023-04-05T08:28:24;98192.94;;;16.14;44.13
22181;BME280;11256;50.830;12.834;2023-04-05T08:33:25;98188.88;;;15.98;41.20
22181;BME280;11256;50.830;12.834;2023-04-05T08:38:27;98180.31;;;14.53;40.60
22181;BME280;11256;50.830;12.834;2023-04-05T08:43:39;98185.56;;;15.05;41.09
22181;BME280;11256;50.830;12.834;2023-04-05T08:48:43;98169.19;;;14.68;40.82
22181;BME280;11256;50.830;12.834;2023-04-05T08:53:43;98174.47;;;14.41;40.39
22181;BME280;11256;50.830;12.834;2023-04-05T08:58:48;98167.00;;;13.81;39.47
22181;BME280;11256;50.830;12.834;2023-04-05T09:03:52;98188.91;;;13.09;40.01
22181;BME280;11256;50.830;12.834;2023-04-05T09:08:54;98185.25;;;12.36;40.15
22181;BME280;11256;50.830;12.834;2023-04-05T09:13:55;98191.44;;;11.78;40.52
22181;BME280;11256;50.830;12.834;2023-04-05T09:18:56;98174.38;;;11.48;41.39
22181;BME280;11256;50.830;12.834;2023-04-05T09:23:56;98169.53;;;11.30;41.55
22181;BME280;11256;50.830;12.834;2023-04-05T09:28:57;98193.13;;;10.94;42.34
22181;BME280;11256;50.830;12.834;2023-04-05T09:34:00;98196.38;;;10.76;42.34
22181;BME280;11256;50.830;12.834;2023-04-05T09:39:06;98173.81;;;10.46;42.58
22181;BME280;11256;50.830;12.834;2023-04-05T09:44:07;98174.81;;;10.20;43.01
22181;BME280;11256;50.830;12.834;2023-04-05T09:49:07;98189.72;;;10.17;43.46
22181;BME280;11256;50.830;12.834;2023-04-05T09:54:09;98183.22;;;10.23;43.79
22181;BME280;11256;50.830;12.834;2023-04-05T09:59:11;98163.41;;;10.18;43.29
22181;BME280;11256;50.830;12.834;2023-04-05T10:04:11;98182.13;;;10.24;43.39
22181;BME280;11256;50.830;12.834;2023-04-05T10:09:11;98161.28;;;10.20;43.96
22181;BME280;11256;50.830;12.834;2023-04-05T10:14:14;98165.13;;;10.44;44.30
22181;BME280;11256;50.830;12.834;2023-04-05T10:19:21;98177.38;;;10.61;45.18
22181;BME280;11256;50.830;12.834;2023-04-05T10:24:45;98172.78;;;10.92;45.10
22181;BME280;11256;50.830;12.834;2023-04-05T10:29:52;98140.25;;;10.92;44.45
22181;BME280;11256;50.830;12.834;2023-04-05T10:40:07;98152.16;;;11.21;44.42
22181;BME280;11256;50.830;12.834;2023-04-05T10:45:12;98139.16;;;11.18;44.78
22181;BME280;11256;50.830;12.834;2023-04-05T10:50:21;98143.50;;;11.09;43.96
22181;BME280;11256;50.830;12.834;2023-04-05T10:55:21;98151.63;;;11.19;44.40
22181;BME280;11256;50.830;12.834;2023-04-05T11:00:22;98148.91;;;11.14;43.94
22181;BME280;11256;50.830;12.834;2023-04-05T11:05:35;98142.97;;;11.07;43.98
22181;BME280;11256;50.830;12.834;2023-04-05T11:10:37;98142.69;;;11.03;44.10
22181;BME280;11256;50.830;12.834;2023-04-05T11:15:38;98129.94;;;11.09;44.92
22181;BME280;11256;50.830;12.834;2023-04-05T11:25:55;98138.06;;;10.99;42.95
22181;BME280;11256;50.830;12.834;2023-04-05T11:36:11;98096.88;;;10.72;43.46
22181;BME280;11256;50.830;12.834;2023-04-05T11:41:16;98140.25;;;10.87;43.90
22181;BME280;11256;50.830;12.834;2023-04-05T11:46:17;98094.97;;;10.67;44.09
22181;BME280;11256;50.830;12.834;2023-04-05T11:51:19;98113.13;;;10.72;43.84
22181;BME280;11256;50.830;12.834;2023-04-05T11:56:22;98133.72;;;10.78;44.08
22181;BME280;11256;50.830;12.834;2023-04-05T12:01:22;98125.59;;;10.73;44.00
22181;BME280;11256;50.830;12.834;2023-04-05T12:06:24;98122.34;;;10.81;44.95
22181;BME280;11256;50.830;12.834;2023-04-05T12:11:32;98125.59;;;10.83;45.20
22181;BME280;11256;50.830;12.834;2023-04-05T12:16:33;98120.47;;;10.66;45.04
22181;BME280;11256;50.830;12.834;2023-04-05T12:21:33;98112.31;;;10.51;44.36
22181;BME280;11256;50.830;12.834;2023-04-05T12:26:34;98114.75;;;10.53;44.96
22181;BME280;11256;50.830;12.834;2023-04-05T12:31:42;98105.53;;;10.44;44.52
22181;BME280;11256;50.830;12.834;2023-04-05T12:36:43;98104.44;;;10.50;45.02
22181;BME280;11256;50.830;12.834;2023-04-05T12:41:55;98110.41;;;10.67;45.84
22181;BME280;11256;50.830;12.834;2023-04-05T12:47:00;98084.41;;;10.91;45.90
22181;BME280;11256;50.830;12.834;2023-04-05T12:52:06;98085.41;;;11.35;45.72
22181;BME280;11256;50.830;12.834;2023-04-05T12:57:07;98089.59;;;11.81;44.75
22181;BME280;11256;50.830;12.834;2023-04-05T13:02:11;98077.38;;;11.83;44.92
22181;BME280;11256;50.830;12.834;2023-04-05T13:07:12;98062.22;;;11.77;45.14
22181;BME280;11256;50.830;12.834;2023-04-05T13:12:12;98070.06;;;11.79;44.89
22181;BME280;11256;50.830;12.834;2023-04-05T13:17:13;98086.09;;;11.85;44.88
22181;BME280;11256;50.830;12.834;2023-04-05T13:22:13;98071.19;;;11.78;45.26
22181;BME280;11256;50.830;12.834;2023-04-05T13:27:14;98075.25;;;11.75;45.17
22181;BME280;11256;50.830;12.834;2023-04-05T13:32:14;98074.97;;;11.82;45.20
22181;BME280;11256;50.830;12.834;2023-04-05T13:37:14;98054.41;;;11.66;45.54
22181;BME280;11256;50.830;12.834;2023-04-05T13:42:15;98061.75;;;11.60;45.46
22181;BME280;11256;50.830;12.834;2023-04-05T13:47:16;98059.84;;;11.51;44.27
22181;BME280;11256;50.830;12.834;2023-04-05T13:52:16;98048.06;;;10.92;41.13
22181;BME280;11256;50.830;12.834;2023-04-05T13:57:17;98052.13;;;10.84;44.48
22181;BME280;11256;50.830;12.834;2023-04-05T14:02:17;98049.16;;;10.86;43.17
22181;BME280;11256;50.830;12.834;2023-04-05T14:07:20;98033.72;;;10.36;41.68
22181;BME280;11256;50.830;12.834;2023-04-05T14:12:21;98036.16;;;10.38;43.22
22181;BME280;11256;50.830;12.834;2023-04-05T14:17:21;98030.22;;;10.46;44.92
22181;BME280;11256;50.830;12.834;2023-04-05T14:22:21;98024.50;;;10.57;45.74
22181;BME280;11256;50.830;12.834;2023-04-05T14:27:22;98027.75;;;10.69;46.06
22181;BME280;11256;50.830;12.834;2023-04-05T14:32:25;98023.69;;;10.72;46.17
22181;BME280;11256;50.830;12.834;2023-04-05T14:37:26;98005.53;;;10.62;46.13
22181;BME280;11256;50.830;12.834;2023-04-05T14:42:26;98002.81;;;10.62;46.56
22181;BME280;11256;50.830;12.834;2023-04-05T14:47:26;98011.75;;;10.73;46.13
22181;BME280;11256;50.830;12.834;2023-04-05T14:52:27;98012.84;;;10.77;46.01
22181;BME280;11256;50.830;12.834;2023-04-05T14:57:27;98009.59;;;10.80;46.12
22181;BME280;11256;50.830;12.834;2023-04-05T15:02:27;98003.66;;;10.58;43.05
22181;BME280;11256;50.830;12.834;2023-04-05T15:07:28;98014.50;;;10.48;41.83
22181;BME280;11256;50.830;12.834;2023-04-05T15:12:30;98007.44;;;10.37;41.62
22181;BME280;11256;50.830;12.834;2023-04-05T15:17:30;97982.81;;;10.18;39.60
22181;BME280;11256;50.830;12.834;2023-04-05T15:22:31;97992.81;;;10.58;47.26
22181;BME280;11256;50.830;12.834;2023-04-05T15:27:31;97976.56;;;10.48;47.00
22181;BME280;11256;50.830;12.834;2023-04-05T15:32:32;97983.53;;;10.89;45.63
22181;BME280;11256;50.830;12.834;2023-04-05T15:37:32;97976.72;;;11.01;48.52
22181;BME280;11256;50.830;12.834;2023-04-05T15:42:33;97988.91;;;11.09;48.31
22181;BME280;11256;50.830;12.834;2023-04-05T15:47:33;97971.50;;;11.25;48.66
22181;BME280;11256;50.830;12.834;2023-04-05T15:52:34;97973.81;;;11.46;48.67
22181;BME280;11256;50.830;12.834;2023-04-05T15:57:34;97980.56;;;11.64;47.03
22181;BME280;11256;50.830;12.834;2023-04-05T16:02:36;97960.47;;;11.60;46.69
22181;BME280;11256;50.830;12.834;2023-04-05T16:07:36;97989.69;;;11.83;46.48
22181;BME280;11256;50.830;12.834;2023-04-05T16:12:36;97987.44;;;11.95;45.66
22181;BME280;11256;50.830;12.834;2023-04-05T16:17:37;97983.06;;;11.99;45.44
22181;BME280;11256;50.830;12.834;2023-04-05T16:22:37;97950.56;;;11.89;45.87
22181;BME280;11256;50.830;12.834;2023-04-05T16:27:37;97968.28;;;12.15;45.53
22181;BME280;11256;50.830;12.834;2023-04-05T16:32:38;97976.50;;;12.05;45.70
22181;BME280;11256;50.830;12.834;2023-04-05T16:37:38;97961.91;;;11.96;45.85
22181;BME280;11256;50.830;12.834;2023-04-05T16:42:38;97981.44;;;11.98;46.42
22181;BME280;11256;50.830;12.834;2023-04-05T16:47:39;97973.88;;;11.90;46.62
22181;BME280;11256;50.830;12.834;2023-04-05T16:52:39;97969.59;;;11.84;47.37
22181;BME280;11256;50.830;12.834;2023-04-05T16:57:40;97973.91;;;11.85;47.24
22181;BME280;11256;50.830;12.834;2023-04-05T17:02:40;97975.63;;;11.71;47.10
22181;BME280;11256;50.830;12.834;2023-04-05T17:07:41;97983.00;;;11.55;46.93
22181;BME280;11256;50.830;12.834;2023-04-05T17:12:41;97978.25;;;11.32;45.31
22181;BME280;11256;50.830;12.834;2023-04-05T17:17:42;97971.53;;;11.15;47.12
22181;BME280;11256;50.830;12.834;2023-04-05T17:22:42;97990.25;;;11.06;46.46
22181;BME280;11256;50.830;12.834;2023-04-05T17:27:43;97997.06;;;10.94;47.33
22181;BME280;11256;50.830;12.834;2023-04-05T17:32:43;97993.88;;;10.72;46.50
22181;BME280;11256;50.830;12.834;2023-04-05T17:37:43;97995.00;;;10.31;42.52
22181;BME280;11256;50.830;12.834;2023-04-05T17:42:44;97987.38;;;9.98;46.14
22181;BME280;11256;50.830;12.834;2023-04-05T17:47:44;97996.59;;;10.12;48.10
22181;BME280;11256;50.830;12.834;2023-04-05T17:52:45;97987.38;;;9.98;47.89
22181;BME280;11256;50.830;12.834;2023-04-05T17:57:45;97989.78;;;9.89;47.63
22181;BME280;11256;50.830;12.834;2023-04-05T18:02:46;97995.44;;;9.83;47.65
22181;BME280;11256;50.830;12.834;2023-04-05T18:07:46;98016.00;;;9.84;47.95
22181;BME280;11256;50.830;12.834;2023-04-05T18:12:46;98016.00;;;9.79;47.96
22181;BME280;11256;50.830;12.834;2023-04-05T18:17:47;98014.34;;;9.68;47.83
22181;BME280;11256;50.830;12.834;2023-04-05T18:22:47;98025.16;;;9.63;47.84
22181;BME280;11256;50.830;12.834;2023-04-05T18:27:47;98018.63;;;9.44;47.89
22181;BME280;11256;50.830;12.834;2023-04-05T18:32:49;98041.88;;;9.45;47.89
22181;BME280;11256;50.830;12.834;2023-04-05T18:37:49;98043.44;;;9.36;48.07
22181;BME280;11256;50.830;12.834;2023-04-05T18:42:50;98038.81;;;9.26;47.91
22181;BME280;11256;50.830;12.834;2023-04-05T18:47:50;98050.13;;;9.13;47.94
22181;BME280;11256;50.830;12.834;2023-04-05T18:52:50;98049.22;;;9.03;47.92
22181;BME280;11256;50.830;12.834;2023-04-05T18:57:50;98028.00;;;8.80;47.88
22181;BME280;11256;50.830;12.834;2023-04-05T19:02:51;98049.88;;;8.78;48.08
22181;BME280;11256;50.830;12.834;2023-04-05T19:07:51;98035.66;;;8.56;48.00
22181;BME280;11256;50.830;12.834;2023-04-05T19:12:51;98034.22;;;8.44;47.97
22181;BME280;11256;50.830;12.834;2023-04-05T19:17:52;98058.50;;;8.44;47.91
22181;BME280;11256;50.830;12.834;2023-04-05T19:22:52;98060.31;;;8.33;48.50
22181;BME280;11256;50.830;12.834;2023-04-05T19:27:53;98066.47;;;8.24;48.21
22181;BME280;11256;50.830;12.834;2023-04-05T19:32:55;98047.34;;;8.04;48.36
22181;BME280;11256;50.830;12.834;2023-04-05T19:37:56;98050.56;;;8.01;48.55
22181;BME280;11256;50.830;12.834;2023-04-05T19:42:58;98049.44;;;7.97;48.24
22181;BME280;11256;50.830;12.834;2023-04-05T19:48:00;98035.47;;;7.78;48.28
22181;BME280;11256;50.830;12.834;2023-04-05T19:53:01;98034.03;;;7.71;48.77
22181;BME280;11256;50.830;12.834;2023-04-05T19:58:05;98052.91;;;7.71;48.48
22181;BME280;11256;50.830;12.834;2023-04-05T20:03:22;98059.81;;;7.62;48.88
22181;BME280;11256;50.830;12.834;2023-04-05T20:08:26;98054.56;;;7.50;49.21
22181;BME280;11256;50.830;12.834;2023-04-05T20:13:28;98060.66;;;7.41;48.67
22181;BME280;11256;50.830;12.834;2023-04-05T20:18:28;98046.47;;;7.29;49.04
22181;BME280;11256;50.830;12.834;2023-04-05T20:23:28;98048.78;;;7.20;48.97
22181;BME280;11256;50.830;12.834;2023-04-05T20:33:48;98035.31;;;6.99;49.46
22181;BME280;11256;50.830;12.834;2023-04-05T20:38:49;98031.94;;;6.87;49.33
22181;BME280;11256;50.830;12.834;2023-04-05T20:43:50;98035.03;;;6.79;49.58
22181;BME280;11256;50.830;12.834;2023-04-05T20:48:51;98024.09;;;6.69;49.35
22181;BME280;11256;50.830;12.834;2023-04-05T20:53:54;98022.31;;;6.58;49.57
22181;BME280;11256;50.830;12.834;2023-04-05T20:58:54;98028.63;;;6.47;49.71
22181;BME280;11256;50.830;12.834;2023-04-05T21:03:55;98010.59;;;6.31;49.64
22181;BME280;11256;50.830;12.834;2023-04-05T21:08:55;98017.03;;;6.30;49.68
22181;BME280;11256;50.830;12.834;2023-04-05T21:13:55;98014.19;;;6.20;50.09
22181;BME280;11256;50.830;12.834;2023-04-05T21:18:56;98010.28;;;6.11;50.25
22181;BME280;11256;50.830;12.834;2023-04-05T21:23:56;98013.97;;;6.05;50.61
22181;BME280;11256;50.830;12.834;2023-04-05T21:28:56;98012.22;;;5.99;50.77
22181;BME280;11256;50.830;12.834;2023-04-05T21:33:57;98014.34;;;5.97;50.28
22181;BME280;11256;50.830;12.834;2023-04-05T21:38:57;97986.16;;;5.83;50.45
22181;BME280;11256;50.830;12.834;2023-04-05T21:43:58;98000.72;;;5.87;50.71
22181;BME280;11256;50.830;12.834;2023-04-05T21:48:58;97980.56;;;5.73;50.74
22181;BME280;11256;50.830;12.834;2023-04-05T21:53:58;98002.16;;;5.78;50.44
22181;BME280;11256;50.830;12.834;2023-04-05T21:58:59;97995.84;;;5.72;51.06
22181;BME280;11256;50.830;12.834;2023-04-05T22:03:59;97973.28;;;5.57;50.71
22181;BME280;11256;50.830;12.834;2023-04-05T22:09:00;97991.22;;;5.68;51.49
22181;BME280;11256;50.830;12.834;2023-04-05T22:14:01;97996.50;;;5.63;51.02
22181;BME280;11256;50.830;12.834;2023-04-05T22:19:05;97973.19;;;5.52;51.15
22181;BME280;11256;50.830;12.834;2023-04-05T22:24:06;97980.19;;;5.53;51.50
22181;BME280;11256;50.830;12.834;2023-04-05T22:29:07;97974.63;;;5.43;51.35
22181;BME280;11256;50.830;12.834;2023-04-05T22:34:07;97986.03;;;5.50;51.51
22181;BME280;11256;50.830;12.834;2023-04-05T22:39:09;97977.53;;;5.41;51.33
22181;BME280;11256;50.830;12.834;2023-04-05T22:44:09;97968.81;;;5.34;51.59
22181;BME280;11256;50.830;12.834;2023-04-05T22:49:10;97969.56;;;5.30;51.13
22181;BME280;11256;50.830;12.834;2023-04-05T22:54:11;97959.75;;;5.24;51.57
22181;BME280;11256;50.830;12.834;2023-04-05T22:59:11;97983.53;;;5.32;51.88
22181;BME280;11256;50.830;12.834;2023-04-05T23:04:11;97989.75;;;5.32;51.95
22181;BME280;11256;50.830;12.834;2023-04-05T23:09:12;97947.19;;;5.13;51.68
22181;BME280;11256;50.830;12.834;2023-04-05T23:14:14;97970.50;;;5.24;51.92
22181;BME280;11256;50.830;12.834;2023-04-05T23:19:14;97950.94;;;5.12;51.92
22181;BME280;11256;50.830;12.834;2023-04-05T23:24:15;97968.53;;;5.19;52.41
22181;BME280;11256;50.830;12.834;2023-04-05T23:29:16;97966.09;;;5.18;51.95
22181;BME280;11256;50.830;12.834;2023-04-05T23:34:18;97963.31;;;5.13;52.42
22181;BME280;11256;50.830;12.834;2023-04-05T23:39:18;97962.72;;;5.11;52.15
22181;BME280;11256;50.830;12.834;2023-04-05T23:44:19;97963.78;;;5.10;52.11
22181;BME280;11256;50.830;12.834;2023-04-05T23:49:19;97955.91;;;4.92;52.29
22181;BME280;11256;50.830;12.834;2023-04-05T23:54:21;97939.91;;;4.85;52.68
22181;BME280;11256;50.830;12.834;2023-04-05T23:59:21;97953.78;;;4.94;52.41
